createdAt,value
2019-03-25T00:01:20.373Z,88.87
2019-03-25T00:03:51.117Z,88.41
2019-03-25T00:06:21.722Z,87.76
2019-03-25T00:09:04.477Z,88.00
2019-03-25T00:11:24.752Z,87.59
2019-03-25T00:13:55.350Z,87.72
2019-03-25T00:16:25.778Z,87.68
2019-03-25T00:18:56.464Z,87.71
2019-03-25T00:21:27.282Z,87.68
2019-03-25T00:23:58.209Z,87.94
2019-03-25T00:26:29.081Z,87.29
2019-03-25T00:28:59.633Z,87.43
2019-03-25T00:31:31.095Z,87.41
2019-03-25T00:34:01.801Z,87.41
2019-03-25T00:36:32.277Z,87.34
2019-03-25T00:39:03.926Z,87.41
2019-03-25T00:41:34.973Z,87.19
2019-03-25T00:44:05.651Z,86.94
2019-03-25T00:46:36.582Z,87.06
2019-03-25T00:49:07.288Z,87.23
2019-03-25T00:51:37.945Z,87.71
2019-03-25T00:54:08.485Z,87.78
2019-03-25T00:56:39.188Z,87.80
2019-03-25T00:59:10.537Z,87.95
2019-03-25T01:01:41.335Z,87.97
2019-03-25T01:04:11.810Z,87.97
2019-03-25T01:06:42.434Z,87.96
2019-03-25T01:09:13.380Z,87.87
2019-03-25T01:11:49.215Z,87.79
2019-03-25T01:14:18.272Z,87.64
2019-03-25T01:16:48.832Z,87.40
2019-03-25T01:19:19.561Z,87.11
2019-03-25T01:21:50.147Z,86.85
2019-03-25T01:24:20.792Z,86.63
2019-03-25T01:26:51.333Z,86.08
2019-03-25T01:29:21.942Z,86.04
2019-03-25T01:31:52.425Z,85.89
2019-03-25T01:34:23.075Z,85.60
2019-03-25T01:36:53.641Z,85.64
2019-03-25T01:39:24.264Z,85.65
2019-03-25T01:41:54.958Z,85.64
2019-03-25T01:44:25.462Z,85.52
2019-03-25T01:46:56.062Z,85.33
2019-03-25T01:49:26.767Z,85.22
2019-03-25T01:51:57.192Z,85.20
2019-03-25T01:54:27.793Z,85.43
2019-03-25T01:56:59.234Z,85.54
2019-03-25T01:59:29.780Z,85.58
2019-03-25T02:02:00.142Z,85.66
2019-03-25T02:04:30.682Z,85.93
2019-03-25T02:07:01.582Z,86.14
2019-03-25T02:09:32.202Z,86.22
2019-03-25T02:12:02.873Z,86.21
2019-03-25T02:14:33.722Z,86.52
2019-03-25T02:17:05.203Z,86.60
2019-03-25T02:19:36.504Z,86.70
2019-03-25T02:22:06.980Z,86.85
2019-03-25T02:24:37.551Z,86.95
2019-03-25T02:27:08.176Z,87.03
2019-03-25T02:29:38.851Z,86.93
2019-03-25T02:32:12.064Z,86.92
2019-03-25T02:34:42.654Z,86.93
2019-03-25T02:37:13.351Z,87.09
2019-03-25T02:39:43.892Z,87.12
2019-03-25T02:42:14.677Z,87.15
2019-03-25T02:44:46.007Z,87.04
2019-03-25T02:47:17.057Z,87.00
2019-03-25T02:49:47.562Z,86.89
2019-03-25T02:52:18.073Z,87.14
2019-03-25T02:54:48.615Z,87.16
2019-03-25T02:57:19.371Z,87.31
2019-03-25T02:59:50.171Z,87.41
2019-03-25T03:02:20.897Z,87.40
2019-03-25T03:04:51.656Z,87.28
2019-03-25T03:07:22.259Z,87.42
2019-03-25T03:09:53.099Z,87.42
2019-03-25T03:12:23.839Z,87.37
2019-03-25T03:14:54.816Z,87.08
2019-03-25T03:17:25.412Z,87.38
2019-03-25T03:19:55.931Z,87.31
2019-03-25T03:22:26.711Z,86.83
2019-03-25T03:24:57.507Z,86.84
2019-03-25T03:27:29.904Z,87.12
2019-03-25T03:30:00.811Z,87.10
2019-03-25T03:32:32.444Z,87.04
2019-03-25T03:35:03.038Z,87.07
2019-03-25T03:37:33.780Z,87.11
2019-03-25T03:40:04.472Z,87.17
2019-03-25T03:42:35.410Z,87.23
2019-03-25T03:45:06.222Z,87.29
2019-03-25T03:47:37.193Z,87.32
2019-03-25T03:50:08.075Z,87.17
2019-03-25T03:52:38.751Z,87.24
2019-03-25T03:55:09.265Z,87.17
2019-03-25T03:57:39.943Z,87.18
2019-03-25T04:00:14.500Z,85.91
2019-03-25T04:02:45.285Z,85.04
2019-03-25T04:05:16.435Z,85.85
2019-03-25T04:07:46.834Z,85.52
2019-03-25T04:10:18.249Z,85.51
2019-03-25T04:12:48.902Z,85.20
2019-03-25T04:15:26.805Z,85.15
2019-03-25T04:17:58.046Z,85.03
2019-03-25T04:20:28.925Z,84.44
2019-03-25T04:22:59.801Z,84.65
2019-03-25T04:25:30.689Z,84.70
2019-03-25T04:28:01.187Z,84.65
2019-03-25T04:30:31.725Z,84.62
2019-03-25T04:33:03.167Z,84.70
2019-03-25T04:35:34.377Z,84.75
2019-03-25T04:38:05.180Z,84.62
2019-03-25T04:40:36.649Z,84.62
2019-03-25T04:43:07.491Z,84.29
2019-03-25T04:45:38.210Z,84.54
2019-03-25T04:48:08.677Z,84.27
2019-03-25T04:50:39.828Z,84.19
2019-03-25T04:53:10.722Z,83.70
2019-03-25T04:55:41.163Z,83.89
2019-03-25T04:58:11.889Z,83.21
2019-03-25T05:00:43.953Z,81.26
2019-03-25T05:03:15.422Z,81.45
2019-03-25T05:05:46.087Z,78.53
2019-03-25T05:08:20.103Z,80.35
2019-03-25T05:10:51.384Z,81.23
2019-03-25T05:13:24.952Z,81.36
2019-03-25T05:15:55.853Z,81.46
2019-03-25T05:18:30.796Z,81.21
2019-03-25T05:21:01.492Z,78.45
2019-03-25T05:23:31.971Z,77.81
2019-03-25T05:26:05.740Z,79.19
2019-03-25T05:28:36.685Z,79.63
2019-03-25T05:31:07.391Z,77.26
2019-03-25T05:33:38.190Z,79.15
2019-03-25T05:36:08.815Z,79.34
2019-03-25T05:38:39.231Z,79.55
2019-03-25T05:41:10.267Z,79.60
2019-03-25T05:43:42.968Z,77.79
2019-03-25T05:46:14.066Z,78.85
2019-03-25T05:48:44.647Z,78.75
2019-03-25T05:51:15.299Z,78.75
2019-03-25T05:53:46.081Z,78.60
2019-03-25T05:56:20.295Z,78.08
2019-03-25T05:58:55.396Z,78.07
2019-03-25T06:01:29.576Z,78.31
2019-03-25T06:04:00.548Z,78.44
2019-03-25T06:06:31.386Z,78.12
2019-03-25T06:09:02.086Z,78.16
2019-03-25T06:11:32.804Z,77.95
2019-03-25T06:14:03.446Z,77.66
2019-03-25T06:16:34.089Z,77.52
2019-03-25T06:19:05.563Z,77.05
2019-03-25T06:21:36.194Z,74.99
2019-03-25T06:24:08.666Z,75.73
2019-03-25T06:26:39.315Z,76.02
2019-03-25T06:29:10.183Z,74.34
2019-03-25T06:31:40.658Z,75.36
2019-03-25T06:34:11.369Z,74.96
2019-03-25T06:36:42.231Z,74.28
2019-03-25T06:39:12.762Z,74.75
2019-03-25T06:41:43.518Z,72.06
2019-03-25T06:44:14.245Z,73.39
2019-03-25T06:46:45.187Z,73.59
2019-03-25T06:49:16.172Z,73.63
2019-03-25T06:51:46.975Z,71.11
2019-03-25T06:54:17.715Z,73.15
2019-03-25T06:56:49.663Z,73.02
2019-03-25T06:59:20.577Z,73.18
2019-03-25T07:01:51.644Z,72.71
2019-03-25T07:04:22.775Z,72.79
2019-03-25T07:06:53.934Z,72.25
2019-03-25T07:09:24.781Z,72.40
2019-03-25T07:11:55.340Z,71.78
2019-03-25T07:14:29.949Z,71.53
2019-03-25T07:17:00.395Z,71.72
2019-03-25T07:19:31.761Z,71.79
2019-03-25T07:22:03.055Z,71.29
2019-03-25T07:24:34.437Z,71.37
2019-03-25T07:27:06.003Z,71.25
2019-03-25T07:29:36.658Z,71.63
2019-03-25T07:32:09.228Z,71.67
2019-03-25T07:34:41.313Z,70.74
2019-03-25T07:37:15.780Z,70.56
2019-03-25T07:39:49.286Z,70.44
2019-03-25T07:42:20.402Z,69.56
2019-03-25T07:44:51.348Z,68.98
2019-03-25T07:47:22.665Z,67.37
2019-03-25T07:49:54.904Z,67.56
2019-03-25T07:52:26.350Z,67.60
2019-03-25T07:54:57.576Z,68.47
2019-03-25T07:57:29.020Z,68.56
2019-03-25T08:00:00.882Z,68.48
2019-03-25T08:02:32.408Z,68.98
2019-03-25T08:05:03.524Z,67.76
2019-03-25T08:07:35.154Z,68.39
2019-03-25T08:10:08.413Z,67.56
2019-03-25T08:12:39.551Z,68.05
2019-03-25T08:15:12.039Z,66.98
2019-03-25T08:17:44.246Z,66.55
2019-03-25T08:20:17.268Z,64.71
2019-03-25T08:22:50.443Z,64.81
2019-03-25T08:25:21.259Z,64.22
2019-03-25T08:27:59.863Z,66.02
2019-03-25T08:30:27.171Z,64.70
2019-03-25T08:32:57.963Z,65.27
2019-03-25T08:35:29.304Z,65.41
2019-03-25T08:38:00.293Z,65.86
2019-03-25T08:40:30.898Z,61.37
2019-03-25T08:43:02.015Z,61.75
2019-03-25T08:45:32.754Z,61.73
2019-03-25T08:48:03.688Z,63.18
2019-03-25T08:50:35.930Z,59.90
2019-03-25T08:53:07.205Z,60.56
2019-03-25T08:55:41.305Z,61.50
2019-03-25T08:58:15.327Z,61.08
2019-03-25T09:00:50.569Z,62.24
2019-03-25T09:03:23.382Z,62.84
2019-03-25T09:05:54.312Z,62.26
2019-03-25T09:08:25.284Z,60.15
2019-03-25T09:10:56.027Z,59.19
2019-03-25T09:13:26.627Z,60.99
2019-03-25T09:15:57.268Z,61.04
2019-03-25T09:18:28.688Z,62.83
2019-03-25T09:20:59.371Z,62.21
2019-03-25T09:23:29.938Z,62.00
2019-03-25T09:26:00.680Z,59.74
2019-03-25T09:28:31.506Z,57.37
2019-03-25T09:31:09.757Z,58.38
2019-03-25T09:33:41.386Z,59.39
2019-03-25T09:36:12.132Z,59.96
2019-03-25T09:38:43.045Z,58.75
2019-03-25T09:41:15.015Z,56.37
2019-03-25T09:43:45.950Z,57.43
2019-03-25T09:46:17.132Z,58.30
2019-03-25T09:48:47.833Z,59.52
2019-03-25T09:51:18.770Z,58.48
2019-03-25T09:53:51.538Z,58.93
2019-03-25T09:56:23.510Z,57.45
2019-03-25T09:58:54.249Z,59.07
2019-03-25T10:01:24.788Z,55.65
2019-03-25T10:03:56.913Z,56.50
2019-03-25T10:06:27.649Z,58.52
2019-03-25T10:08:59.608Z,57.15
2019-03-25T10:11:31.795Z,56.54
2019-03-25T10:14:04.505Z,56.87
2019-03-25T10:16:35.587Z,57.53
2019-03-25T10:19:06.511Z,55.77
2019-03-25T10:21:37.377Z,54.61
2019-03-25T10:24:08.607Z,56.86
2019-03-25T10:26:40.421Z,54.99
2019-03-25T10:29:13.618Z,55.67
2019-03-25T10:31:44.337Z,54.41
2019-03-25T10:34:18.411Z,55.73
2019-03-25T10:36:52.959Z,58.26
2019-03-25T10:39:23.123Z,58.25
2019-03-25T10:41:55.940Z,55.77
2019-03-25T10:44:27.723Z,59.49
2019-03-25T10:46:58.538Z,57.54
2019-03-25T10:49:29.683Z,57.91
2019-03-25T10:52:09.936Z,56.32
2019-03-25T10:54:40.865Z,57.23
2019-03-25T10:57:11.630Z,55.30
2019-03-25T10:59:43.173Z,53.17
2019-03-25T11:02:14.064Z,52.98
2019-03-25T11:04:44.979Z,51.74
2019-03-25T11:07:16.156Z,53.04
2019-03-25T11:09:47.105Z,53.63
2019-03-25T11:12:17.507Z,54.21
2019-03-25T11:14:48.063Z,54.77
2019-03-25T11:17:18.478Z,54.41
2019-03-25T11:19:48.902Z,53.63
2019-03-25T11:22:19.697Z,51.20
2019-03-25T11:24:50.626Z,53.46
2019-03-25T11:27:21.127Z,53.67
2019-03-25T11:29:51.856Z,50.95
2019-03-25T11:32:22.302Z,49.85
2019-03-25T11:34:52.942Z,52.76
2019-03-25T11:37:23.662Z,51.19
2019-03-25T11:39:54.538Z,52.56
2019-03-25T11:42:25.150Z,53.28
2019-03-25T11:44:56.241Z,54.79
2019-03-25T11:47:26.935Z,47.75
2019-03-25T11:49:57.463Z,52.91
2019-03-25T11:52:28.015Z,53.08
2019-03-25T11:54:58.734Z,53.47
2019-03-25T11:57:29.331Z,53.27
2019-03-25T11:59:59.794Z,53.90
2019-03-25T12:02:30.541Z,52.91
2019-03-25T12:05:01.067Z,54.21
2019-03-25T12:07:32.229Z,55.14
2019-03-25T12:10:03.232Z,50.96
2019-03-25T12:12:34.194Z,52.57
2019-03-25T12:15:04.987Z,52.59
2019-03-25T12:17:35.693Z,51.98
2019-03-25T12:20:06.708Z,49.97
2019-03-25T12:22:38.545Z,53.26
2019-03-25T12:25:11.965Z,50.77
2019-03-25T12:27:42.912Z,51.89
2019-03-25T12:30:13.616Z,50.25
2019-03-25T12:32:44.685Z,49.03
2019-03-25T12:35:15.362Z,50.29
2019-03-25T12:37:45.803Z,51.59
2019-03-25T12:40:16.481Z,52.51
2019-03-25T12:42:47.023Z,49.81
2019-03-25T12:45:17.756Z,53.54
2019-03-25T12:47:48.150Z,51.59
2019-03-25T12:50:18.625Z,47.67
2019-03-25T12:52:49.750Z,45.85
2019-03-25T12:55:20.596Z,44.60
2019-03-25T12:57:51.235Z,42.50
2019-03-25T13:00:46.905Z,46.37
2019-03-25T13:03:17.946Z,46.87
2019-03-25T13:05:48.842Z,44.74
2019-03-25T13:08:19.597Z,43.41
2019-03-25T13:10:49.822Z,44.40
2019-03-25T13:13:20.487Z,42.66
2019-03-25T13:15:51.242Z,42.85
2019-03-25T13:18:21.804Z,43.56
2019-03-25T13:20:52.441Z,40.99
2019-03-25T13:23:23.399Z,40.27
2019-03-25T13:25:54.315Z,37.91
2019-03-25T13:28:24.854Z,39.71
2019-03-25T13:30:57.231Z,38.28
2019-03-25T13:33:29.433Z,40.10
2019-03-25T13:36:00.496Z,43.64
2019-03-25T13:38:31.370Z,43.38
2019-03-25T13:41:01.942Z,44.28
2019-03-25T13:43:32.745Z,43.20
2019-03-25T13:46:05.760Z,40.99
2019-03-25T13:48:36.231Z,39.52
2019-03-25T13:51:07.152Z,41.56
2019-03-25T13:53:37.689Z,38.78
2019-03-25T13:56:08.174Z,41.41
2019-03-25T13:58:38.614Z,39.63
2019-03-25T14:01:09.522Z,37.21
2019-03-25T14:03:40.271Z,38.90
2019-03-25T14:06:11.374Z,35.67
2019-03-25T14:08:41.929Z,38.97
2019-03-25T14:11:12.573Z,39.71
2019-03-25T14:13:49.509Z,40.28
2019-03-25T14:16:18.059Z,40.17
2019-03-25T14:18:48.480Z,44.47
2019-03-25T14:21:19.199Z,43.83
2019-03-25T14:23:49.884Z,45.92
2019-03-25T14:26:20.286Z,46.71
2019-03-25T14:28:50.843Z,45.78
2019-03-25T14:31:22.549Z,47.94
2019-03-25T14:33:53.603Z,48.76
2019-03-25T14:36:24.884Z,49.62
2019-03-25T14:38:55.373Z,50.33
2019-03-25T14:41:26.237Z,49.76
2019-03-25T14:43:56.949Z,51.30
2019-03-25T14:46:28.791Z,51.48
2019-03-25T14:49:03.327Z,52.36
2019-03-25T14:51:37.487Z,50.43
2019-03-25T14:54:08.243Z,53.08
2019-03-25T14:56:38.897Z,50.46
2019-03-25T14:59:09.383Z,52.56
2019-03-25T15:01:40.166Z,53.97
2019-03-25T15:04:10.723Z,55.24
2019-03-25T15:06:41.620Z,55.79
2019-03-25T15:09:12.425Z,55.53
2019-03-25T15:11:43.244Z,56.84
2019-03-25T15:14:14.309Z,57.63
2019-03-25T15:16:46.585Z,57.00
2019-03-25T15:19:17.082Z,57.01
2019-03-25T15:21:50.088Z,57.56
2019-03-25T15:24:20.929Z,57.97
2019-03-25T15:26:51.512Z,56.70
2019-03-25T15:29:21.980Z,58.32
2019-03-25T15:31:53.479Z,56.39
2019-03-25T15:34:24.128Z,57.89
2019-03-25T15:36:54.606Z,58.46
2019-03-25T15:39:26.177Z,59.21
2019-03-25T15:41:57.113Z,59.65
2019-03-25T15:44:27.812Z,58.44
2019-03-25T15:46:58.341Z,59.44
2019-03-25T15:49:29.770Z,58.88
2019-03-25T15:52:00.131Z,58.79
2019-03-25T15:54:31.131Z,59.69
2019-03-25T15:57:01.701Z,60.46
2019-03-25T15:59:32.615Z,60.41
2019-03-25T16:02:03.571Z,60.16
2019-03-25T16:04:35.042Z,60.62
2019-03-25T16:07:06.705Z,59.31
2019-03-25T16:09:37.851Z,60.60
2019-03-25T16:12:14.730Z,60.03
2019-03-25T16:14:45.209Z,60.63
2019-03-25T16:17:15.985Z,60.83
2019-03-25T16:19:46.492Z,60.92
2019-03-25T16:22:17.069Z,61.33
2019-03-25T16:24:47.488Z,61.75
2019-03-25T16:27:18.546Z,62.47
2019-03-25T16:29:49.375Z,62.31
2019-03-25T16:32:20.567Z,62.18
2019-03-25T16:34:51.645Z,62.94
2019-03-25T16:37:22.588Z,62.22
2019-03-25T16:39:56.718Z,63.06
2019-03-25T16:42:27.148Z,63.61
2019-03-25T16:44:59.008Z,64.01
2019-03-25T16:47:29.680Z,64.18
2019-03-25T16:50:00.350Z,64.08
2019-03-25T16:52:31.382Z,63.77
2019-03-25T16:55:03.118Z,62.90
2019-03-25T16:57:33.838Z,62.36
2019-03-25T17:00:05.054Z,63.49
2019-03-25T17:02:36.077Z,63.95
2019-03-25T17:05:07.565Z,63.56
2019-03-25T17:07:39.130Z,64.25
2019-03-25T17:10:09.897Z,64.50
2019-03-25T17:12:40.812Z,64.57
2019-03-25T17:15:12.077Z,64.68
2019-03-25T17:17:46.609Z,64.24
2019-03-25T17:20:17.439Z,64.57
2019-03-25T17:22:48.652Z,64.90
2019-03-25T17:25:19.839Z,65.25
2019-03-25T17:27:52.027Z,65.52
2019-03-25T17:30:23.018Z,65.69
2019-03-25T17:32:54.170Z,65.65
2019-03-25T17:35:25.005Z,65.25
2019-03-25T17:37:56.135Z,65.21
2019-03-25T17:40:27.501Z,65.24
2019-03-25T17:42:58.581Z,64.09
2019-03-25T17:45:31.254Z,63.91
2019-03-25T17:48:05.071Z,63.78
2019-03-25T17:50:35.431Z,63.56
2019-03-25T17:53:06.175Z,63.45
2019-03-25T17:55:37.069Z,63.46
2019-03-25T17:58:11.658Z,63.69
2019-03-25T18:01:32.561Z,64.28
2019-03-25T18:04:01.162Z,64.25
2019-03-25T18:06:33.638Z,65.31
2019-03-25T18:09:08.915Z,65.10
2019-03-25T18:11:42.640Z,66.06
2019-03-25T18:14:13.741Z,66.53
2019-03-25T18:16:47.138Z,66.68
2019-03-25T18:19:20.850Z,66.01
2019-03-25T18:21:51.440Z,65.97
2019-03-25T18:24:21.966Z,66.19
2019-03-25T18:26:54.329Z,66.37
2019-03-25T18:29:26.133Z,66.70
2019-03-25T18:31:56.589Z,66.82
2019-03-25T18:34:27.918Z,66.80
2019-03-25T18:36:58.836Z,66.79
2019-03-25T18:39:30.678Z,67.36
2019-03-25T18:42:04.638Z,67.58
2019-03-25T18:44:35.631Z,67.89
2019-03-25T18:47:07.354Z,67.96
2019-03-25T18:49:38.498Z,68.11
2019-03-25T18:52:09.488Z,68.38
2019-03-25T18:54:43.105Z,68.55
2019-03-25T18:57:16.253Z,68.69
2019-03-25T18:59:49.519Z,69.06
2019-03-25T19:02:20.317Z,69.26
2019-03-25T19:04:50.942Z,69.45
2019-03-25T19:07:24.646Z,69.34
2019-03-25T19:09:57.894Z,69.12
2019-03-25T19:12:28.648Z,69.13
2019-03-25T19:14:59.126Z,69.14
2019-03-25T19:17:30.117Z,69.08
2019-03-25T19:20:00.645Z,68.87
2019-03-25T19:22:31.372Z,68.70
2019-03-25T19:25:01.977Z,68.62
2019-03-25T19:27:32.586Z,68.49
2019-03-25T19:30:03.982Z,68.40
2019-03-25T19:32:37.818Z,68.35
2019-03-25T19:35:08.402Z,68.30
2019-03-25T19:37:38.731Z,67.80
2019-03-25T19:40:09.688Z,67.66
2019-03-25T19:42:40.410Z,67.56
2019-03-25T19:45:12.847Z,67.68
2019-03-25T19:47:43.443Z,67.60
2019-03-25T19:50:14.139Z,67.64
2019-03-25T19:52:45.392Z,67.91
2019-03-25T19:55:16.229Z,67.88
2019-03-25T19:57:46.681Z,67.79
2019-03-25T20:00:22.546Z,67.63
2019-03-25T20:02:52.854Z,67.77
2019-03-25T20:05:23.452Z,68.03
2019-03-25T20:07:54.303Z,68.04
2019-03-25T20:10:32.506Z,68.13
2019-03-25T20:13:03.257Z,68.13
2019-03-25T20:15:45.600Z,68.31
2019-03-25T20:18:06.821Z,68.53
2019-03-25T20:20:37.801Z,68.78
2019-03-25T20:23:11.364Z,69.10
2019-03-25T20:25:41.812Z,69.32
2019-03-25T20:28:12.124Z,69.56
2019-03-25T20:30:42.662Z,69.55
2019-03-25T20:33:13.320Z,69.07
2019-03-25T20:35:43.914Z,68.46
2019-03-25T20:38:14.945Z,68.21
2019-03-25T20:40:45.337Z,67.55
2019-03-25T20:43:16.097Z,66.91
2019-03-25T20:45:46.626Z,66.58
2019-03-25T20:48:17.182Z,66.24
2019-03-25T20:50:47.882Z,66.21
2019-03-25T20:53:19.981Z,66.02
2019-03-25T20:55:51.302Z,66.04
2019-03-25T20:58:21.871Z,65.65
2019-03-25T21:00:55.369Z,65.81
2019-03-25T21:03:25.886Z,65.80
2019-03-25T21:05:56.273Z,65.07
2019-03-25T21:08:26.618Z,64.79
2019-03-25T21:10:57.077Z,63.91
2019-03-25T21:13:28.045Z,63.16
2019-03-25T21:15:58.514Z,63.02
2019-03-25T21:18:28.998Z,63.27
2019-03-25T21:20:59.497Z,62.31
2019-03-25T21:23:30.154Z,62.44
2019-03-25T21:26:00.879Z,62.12
2019-03-25T21:28:31.599Z,61.25
2019-03-25T21:31:02.152Z,59.61
2019-03-25T21:33:32.806Z,60.09
2019-03-25T21:36:03.265Z,59.35
2019-03-25T21:38:33.927Z,59.72
2019-03-25T21:41:04.219Z,59.01
2019-03-25T21:43:35.281Z,59.59
2019-03-25T21:46:05.889Z,59.94
2019-03-25T21:48:36.446Z,60.12
2019-03-25T21:51:07.080Z,60.89
2019-03-25T21:53:37.834Z,61.00
2019-03-25T21:56:08.323Z,62.08
2019-03-25T21:58:39.774Z,62.33
2019-03-25T22:01:10.392Z,62.86
2019-03-25T22:03:40.786Z,62.91
2019-03-25T22:06:11.391Z,62.79
2019-03-25T22:08:42.033Z,62.85
2019-03-25T22:11:12.691Z,63.04
2019-03-25T22:13:43.179Z,63.40
2019-03-25T22:16:13.675Z,63.71
2019-03-25T22:18:44.189Z,63.33
2019-03-25T22:21:14.661Z,62.74
2019-03-25T22:23:44.927Z,63.22
2019-03-25T22:26:15.519Z,62.64
2019-03-25T22:28:46.120Z,62.28
2019-03-25T22:31:17.394Z,62.77
2019-03-25T22:33:47.947Z,63.35
2019-03-25T22:36:18.890Z,63.79
2019-03-25T22:38:49.289Z,64.00
2019-03-25T22:41:20.008Z,64.14
2019-03-25T22:43:50.320Z,64.41
2019-03-25T22:46:20.678Z,64.75
2019-03-25T22:48:50.927Z,65.06
2019-03-25T22:51:21.406Z,65.24
2019-03-25T22:53:51.838Z,64.98
2019-03-25T22:56:22.050Z,65.03
2019-03-25T22:58:52.549Z,65.08
2019-03-25T23:01:23.334Z,65.12
2019-03-25T23:03:53.720Z,65.05
2019-03-25T23:06:25.045Z,65.09
2019-03-25T23:08:55.498Z,65.08
2019-03-25T23:11:25.784Z,64.92
2019-03-25T23:13:56.145Z,64.72
2019-03-25T23:16:26.712Z,64.86
2019-03-25T23:18:56.973Z,64.91
2019-03-25T23:21:27.283Z,64.91
2019-03-25T23:23:57.744Z,64.88
2019-03-25T23:26:28.382Z,64.83
2019-03-25T23:28:58.996Z,64.79
2019-03-25T23:31:29.534Z,64.85
2019-03-25T23:33:59.863Z,65.08
2019-03-25T23:36:30.670Z,65.37
2019-03-25T23:39:01.559Z,65.44
2019-03-25T23:41:32.120Z,65.54
2019-03-25T23:44:02.443Z,65.74
2019-03-25T23:46:33.026Z,65.82
2019-03-25T23:49:03.473Z,65.94
2019-03-25T23:51:34.134Z,66.00
2019-03-25T23:54:16.353Z,66.14
2019-03-25T23:56:46.821Z,66.23
2019-03-25T23:59:17.411Z,66.55
